Weather observations for the past three days for
Maple Lake, Maple Lake Municipal Airport
Metric (Imperial)
Date Time (cdt) Wind (kph) Vis. (km) Weather Sky Cond. Temperature (ºC) Relative Humidity Wind Chill (°C) Heat Index (°C) Pressure Precipitation (cm)
Air Dwpt 6 hour altimeter (cm) sea level (mb) 1 hr 3 hr 6 hr
Max. Min.
04 09:35 NW 28 G 37 16.09 Fair CLR 14.5 1.4 41% 74.93 0.0
04 09:15 NW 19 G 31 16.09 Fair CLR 14.6 1.8 42% 74.93 0.0
04 08:55 W 15 G 35 16.09 Fair CLR 13.7 1.4 43% 74.9 0.0
04 08:35 NW 20 G 28 16.09 Fair CLR 13 1.5 46% 74.9 0.0
04 08:15 W 19 G 30 16.09 Fair CLR 13.1 1.1 44% 74.9 0.0
04 07:55 NW 22 G 33 16.09 Fair CLR 13 1.1 45% 74.88 0.0
04 07:35 NW 13 G 28 16.09 Fair CLR 13.1 2.6 49% 74.85 0.0
04 07:15 NW 24 G 33 16.09 Fair CLR 13.2 2.4 48% 74.83 0.0
04 06:55 W 17 16.09 Fair CLR 14 2.7 15.5 13 47% 74.8 0.0
04 06:35 W 20 G 35 16.09 Fair CLR 14.3 1.4 42% 74.78 0.0
04 06:15 W 15 G 28 16.09 Fair CLR 14.2 0 38% 74.73 0.0
04 05:55 W 15 G 30 16.09 Fair CLR 14.7 -0.7 35% 74.7 0.0
04 05:35 SW 15 G 35 16.09 Fair CLR 15.5 -1.1 32% 74.68 0.0
04 05:15 SW 17 G 28 16.09 Partly Cloudy SCT110 14.8 -1.5 33% 74.7 0.0
04 04:55 SW 11 16.09 Partly Cloudy SCT110 14 -2 33% 74.7 0.0
04 04:35 S 11 16.09 Partly Cloudy SCT110 13.7 -2.1 34% 74.7 0.0
04 04:15 SW 11 16.09 Fair CLR 13.5 -2.4 33% 74.73 0.0
04 03:55 S 7 16.09 Fair CLR 13.5 -2.6 33% 74.75 0.0
04 03:35 SW 11 16.09 Fair CLR 13.1 -2.4 34% 74.78 0.0
04 03:15 SW 9 16.09 Fair CLR 13.1 -2.4 34% 74.8 0.0
04 02:55 S 11 16.09 Fair CLR 13.1 -2.1 35% 74.83 0.0
04 02:35 S 13 16.09 Fair CLR 13 -1.7 36% 74.88 0.0
04 02:15 S 13 16.09 Fair CLR 13.2 -1.8 36% 74.9 0.0
04 01:55 SW 11 16.09 Fair CLR 13.5 -1.6 35% 74.93 0.0
04 01:35 SW 9 16.09 Fair CLR 13.5 -1.5 36% 74.96 0.0
04 01:15 S 11 16.09 Fair CLR 13.5 -1.7 35% 74.98 0.0
04 00:55 S 9 16.09 Fair CLR 13.5 -1.3 20.4 11.1 36% 75.01 0.0
04 00:35 S 13 16.09 Fair CLR 13.6 -1.2 36% 75.06 0.0
04 00:15 S 9 16.09 Fair CLR 13.7 -1.3 36% 75.06 0.0
03 23:55 S 7 16.09 Fair CLR 13.8 -1.2 36% 75.11 0.0
03 23:35 S 9 16.09 Fair CLR 13.5 -0.9 37% 75.13 0.0
03 23:15 S 7 16.09 Fair CLR 13.3 -0.1 40% 75.16 0.0
03 22:55 S 7 16.09 Fair CLR 13.2 0 41% 75.21 0.0
03 22:35 S 6 16.09 Fair CLR 12.6 0.1 43% 75.23 0.0
03 22:15 Calm 16.09 Fair CLR 11.8 0.8 47% 75.29 0.0
03 21:55 Calm 16.09 Fair CLR 12 0.3 45% 75.31 0.0
03 21:35 Calm 16.09 Fair CLR 12 0.8 47% 75.31 0.0
03 21:15 Calm 16.09 Fair CLR 14.1 -0.7 36% 75.31 0.0
03 20:55 Calm 16.09 Fair CLR 15.6 -1.8 30% 75.31 0.0
03 20:35 Calm 16.09 Fair CLR 16.5 -1.8 29% 75.34 0.0
03 20:15 W 7 16.09 Fair CLR 17.7 -2.5 25% 75.34 0.0
03 19:55 W 9 16.09 Fair CLR 18.8 -2.2 24% 75.36 0.0
03 19:35 W 9 16.09 Fair CLR 19.7 -2.8 22% 75.36 0.0
03 19:15 W 13 G 26 16.09 Fair CLR 20.1 -4.1 19% 75.36 0.0
03 18:55 W 15 16.09 Fair CLR 20.5 -3.3 21.1 18.9 20% 75.36 0.0
03 18:35 W 9 16.09 Fair CLR 20.7 -3.9 19% 75.36 0.0
03 18:15 W 11 16.09 Fair CLR 20.4 -4.7 18% 75.39 0.0
03 17:55 W 11 G 31 16.09 Fair CLR 21 -4 18% 75.39 0.0
03 17:35 NW 17 G 28 16.09 Fair CLR 21 -5.5 16% 75.41 0.0
03 17:15 NW 15 G 26 16.09 Fair CLR 21.1 -3.5 19% 75.41 0.0
03 16:55 NW 15 16.09 Fair CLR 20.7 -4.2 18% 75.44 0.0
03 16:35 NW 19 G 26 16.09 Fair CLR 21 -3.4 19% 75.44 0.0
03 16:15 NW 17 16.09 Fair CLR 20.7 -3.7 19% 75.46 0.0
03 15:55 NW 13 16.09 Fair CLR 20.8 -2.5 21% 75.49 0.0
03 15:35 NW 15 16.09 Fair CLR 20.5 -4 19% 75.49 0.0
03 15:15 NW 22 G 28 16.09 Fair CLR 20.3 -4.3 19% 75.51 0.0
03 14:55 W 15 16.09 Fair CLR 20.1 -4.4 19% 75.51 0.0
03 14:35 NW 17 16.09 Fair CLR 19.9 -5.1 18% 75.54 0.0
03 14:15 NW 19 G 39 16.09 Fair CLR 19.9 -5.3 18% 75.57 0.0
03 13:55 NW 19 G 33 16.09 Fair CLR 19.5 -3.8 20% 75.59 0.0
03 13:35 NW 20 G 31 16.09 Fair CLR 19.5 -2.4 23% 75.59 0.0
03 13:15 NW 17 G 26 16.09 Fair CLR 18.9 -2.5 23% 75.59 0.0
03 12:55 N 19 G 35 16.09 Fair CLR 19 -2.2 19.1 10.5 24% 75.62 0.0
03 12:35 N 26 G 39 16.09 Fair CLR 19.1 -2.5 23% 75.62 0.0
03 12:15 NW 20 G 30 16.09 Fair CLR 19 -2.2 24% 75.62 0.0
03 11:55 NW 22 G 35 16.09 Fair CLR 18.4 -2 25% 75.62 0.0
03 11:35 NW 20 16.09 Fair CLR 18 -1.4 27% 75.62 0.0
03 11:15 N 22 G 33 16.09 Fair CLR 18 1 32% 75.62 0.0
03 10:55 NW 24 G 33 16.09 Fair CLR 17.9 1.2 33% 75.62 0.0
03 10:35 NW 19 G 30 16.09 Fair CLR 17.1 0.8 33% 75.62 0.0
03 10:15 NW 26 G 33 16.09 Fair CLR 17.1 1.3 35% 75.62 0.0
03 09:55 N 22 G 30 16.09 Fair CLR 16.7 2.1 38% 75.59 0.0
03 09:35 NW 20 G 28 16.09 Fair CLR 16.1 3.1 42% 75.59 0.0
03 09:15 N 22 G 30 16.09 Fair CLR 15.4 3 44% 75.59 0.0
03 08:55 N 19 G 30 16.09 Fair CLR 14.6 2.9 46% 75.57 0.0
03 08:35 N 20 G 28 16.09 Fair CLR 13.5 2.4 47% 75.57 0.0
03 08:15 N 19 16.09 Fair CLR 13 2 47% 75.57 0.0
03 07:55 NW 19 16.09 Fair CLR 12.2 2 50% 75.54 0.0
03 07:35 NW 17 G 28 16.09 Fair CLR 11.5 2 52% 75.51 0.0
03 07:15 NW 17 G 28 16.09 Fair CLR 10.9 1.9 54% 75.49 0.0
03 06:55 NW 19 G 28 16.09 Fair CLR 10.4 2 15.6 6.2 56% 75.46 0.0
03 06:35 NW 17 16.09 Fair CLR 9.9 2 58% 8 75.44 0.0
03 06:15 NW 11 16.09 Fair CLR 6.6 1.2 69% 5 75.41 0.0
03 05:55 Calm 16.09 Fair CLR 6.3 1 69% 75.39 0.0
03 05:35 Calm 16.09 Fair CLR 7.6 1.5 66% 75.39 0.0
03 05:15 Calm 16.09 Fair CLR 9.3 1.3 58% 75.39 0.0
03 04:55 W 6 16.09 Fair CLR 10.3 0.9 52% 75.39 0.0
03 04:35 S 7 16.09 Fair CLR 11.1 0.7 49% 75.36 0.0
03 04:15 S 6 16.09 Fair CLR 11.6 0.7 47% 75.39 0.0
03 03:55 SW 6 16.09 Fair CLR 12.1 0.6 46% 75.39 0.0
03 03:35 S 9 16.09 Fair CLR 13 0.5 43% 75.41 0.0
03 03:15 S 7 16.09 Fair CLR 13.1 0.7 43% 75.41 0.0
03 02:55 S 7 16.09 Fair CLR 13.4 1 43% 75.44 0.0
03 02:35 S 11 16.09 Fair CLR 13.8 0.8 41% 75.41 0.0
03 02:15 S 7 16.09 Partly Cloudy SCT110 14.2 0.8 40% 75.44 0.0
03 01:55 S 11 16.09 Mostly Cloudy BKN110 15.1 0.2 36% 75.44 0.0
03 01:35 S 11 G 31 16.09 Overcast OVC120 15.6 0 35% 75.46 0.0
03 01:15 S 9 16.09 Mostly Cloudy BKN120 15.1 1.7 41% 75.46 0.0
03 00:55 S 6 16.09 Mostly Cloudy BKN120 15.7 1 18.2 13.8 37% 75.49 0.0
03 00:35 S 13 16.09 Mostly Cloudy SCT075 BKN120 15.5 1.9 40% 75.51 0.0
03 00:15 SW 9 16.09 Mostly Cloudy BKN085 BKN110 15.5 2.2 41% 75.57 0.0
02 23:55 SW 9 16.09 Mostly Cloudy SCT085 BKN110 14.6 0.8 39% 75.54 0.0
02 23:35 S 9 16.09 Partly Cloudy SCT120 14.4 -0.2 37% 75.57 0.0
02 23:15 S 7 16.09 Fair CLR 13.8 0.3 40% 75.57 0.0
02 22:55 S 7 16.09 Partly Cloudy SCT120 14.3 -0.1 38% 75.59 0.0
02 22:35 S 9 16.09 Mostly Cloudy BKN110 14.6 0 37% 75.62 0.0
02 22:15 S 7 16.09 Mostly Cloudy BKN110 14.4 0 38% 75.64 0.0
02 21:55 S 7 16.09 Mostly Cloudy BKN120 14.6 0.3 38% 75.67 0.0
02 21:35 SE 6 16.09 Overcast OVC120 14.7 1.2 40% 75.69 0.0
02 21:15 SE 6 16.09 Mostly Cloudy BKN110 14.7 1.8 42% 75.72 0.0
02 20:55 SE 6 16.09 Partly Cloudy SCT090 15.1 1 39% 75.72 0.0
02 20:35 Calm 16.09 Mostly Cloudy BKN090 15.7 0.4 36% 75.74 0.0
02 20:15 S 6 16.09 Mostly Cloudy BKN110 16.2 0 33% 75.77 0.0
02 19:55 SW 11 16.09 Mostly Cloudy BKN100 16.5 -0.2 32% 75.79 0.0
02 19:35 W 22 G 37 16.09 Partly Cloudy SCT060 SCT080 17.2 -0.9 29% 75.84 0.0
02 19:15 W 13 G 30 16.09 Partly Cloudy SCT090 SCT110 17.8 -2.2 26% 75.82 0.0
02 18:55 W 11 G 26 16.09 Partly Cloudy SCT090 SCT110 18.3 -3.2 19.9 16.6 23% 75.82 0.0
02 18:35 W 11 G 31 16.09 Partly Cloudy SCT090 SCT120 18.3 -2.6 24% 75.82 0.0
02 18:15 W 15 G 39 16.09 Partly Cloudy SCT080 SCT090 18.3 -2.2 25% 75.82 0.0
02 17:55 W 9 16.09 Mostly Cloudy SCT070 BKN090 18.8 -2.5 24% 75.82 0.0
02 17:35 W 11 16.09 Partly Cloudy SCT090 18.7 -2.5 24% 75.82 0.0
02 17:15 W 15 G 26 16.09 Partly Cloudy SCT090 19.2 -2.5 23% 75.84 0.0
02 16:55 SW 15 16.09 Fair CLR 19.5 -1.3 25% 75.84 0.0
02 16:35 W 13 16.09 Fair CLR 19.3 -1.6 24% 75.87 0.0
02 16:15 SW 11 G 30 16.09 Fair CLR 19.6 -1.4 24% 75.87 0.0
02 15:55 SW 13 16.09 Fair CLR 19.9 -1.3 24% 75.92 0.0
02 15:35 W 11 G 33 16.09 Fair CLR 19.1 -1.5 25% 75.95 0.0
02 15:15 W 13 16.09 Fair CLR 19.5 -1.3 25% 75.97 0.0
02 14:55 SW 19 G 31 16.09 Fair CLR 19.5 -1.2 25% 76.02 0.0
02 14:35 W 15 16.09 Fair CLR 18.8 -1.8 25% 76.02 0.0
02 14:15 SW 9 G 28 16.09 Fair CLR 18.3 -2 25% 76.07 0.0
02 13:55 SW 15 G 28 16.09 Fair CLR 17.7 -1.7 27% 76.1 0.0
02 13:35 SW 17 G 26 16.09 Fair CLR 17.3 -2.4 26% 76.12 0.0
02 13:15 SW 13 16.09 Fair CLR 16.9 -2.2 27% 76.15 0.0
02 12:55 SW 17 G 28 16.09 Fair CLR 16.2 -2.9 16.2 3.5 27% 76.17 0.0
02 12:35 SW 19 G 26 16.09 Fair CLR 15.7 -3 28% 76.23 0.0
02 12:15 SW 17 G 26 16.09 Fair CLR 15.1 -2.7 29% 76.25 0.0
02 11:55 SW 9 16.09 Fair CLR 14.6 -3.3 29% 76.28 0.0
02 11:35 SW 7 16.09 Fair CLR 14.2 -3.7 29% 76.28 0.0
02 11:15 SW 7 16.09 Fair CLR 13.8 -3.6 30% 76.3 0.0
02 10:55 W 13 16.09 Partly Cloudy SCT090 13.4 -4.1 30% 76.33 0.0
02 10:35 W 11 16.09 Fair CLR 13.1 -2.9 33% 76.35 0.0
02 10:15 SW 11 16.09 Fair CLR 12.2 -2.6 36% 76.35 0.0
02 09:55 W 7 16.09 Fair CLR 11.5 -2.2 39% 76.38 0.0
02 09:35 SW 13 16.09 Fair CLR 10.8 -1.8 42% 76.38 0.0
02 09:15 SW 9 16.09 Fair CLR 10 -1.5 45% 9 76.4 0.0
02 08:55 SW 7 16.09 Fair CLR 9.5 -1.3 47% 9 76.4 0.0
02 08:35 SW 7 16.09 Fair CLR 9 -0.9 50% 8 76.4 0.0
02 08:15 W 9 16.09 Fair CLR 7.6 -0.9 55% 6 76.43 0.0
02 07:55 W 6 16.09 Fair CLR 6.7 -0.7 60% 76.43 0.0
02 07:35 W 6 16.09 Fair CLR 5.6 -1.1 62% 76.43 0.0
02 07:15 Calm 16.09 Fair CLR 4.4 -1.4 66% 76.43 0.0
02 06:55 Calm 16.09 Fair CLR 3.6 -2 4.6 1.9 67% 76.43 0.0
02 06:35 Calm 16.09 Fair CLR 2.5 -2.2 71% 76.43 0.0
02 06:15 Calm 16.09 Fair CLR 2.1 -2.3 73% 76.4 0.0
02 05:55 Calm 16.09 Fair CLR 2.5 -2.5 70% 76.4 0.0
02 05:35 Calm 16.09 Fair CLR 2.3 -2.3 72% 76.43 0.0
02 05:15 W 6 16.09 Fair CLR 2.2 -2.5 71% 76.43 0.0
02 04:55 W 7 16.09 Fair CLR 2.1 -2.4 72% 0 76.4 0.0
02 04:35 Calm 16.09 Fair CLR 2.5 -2.5 70% 76.4 0.0
02 04:15 Calm 16.09 Fair CLR 2.3 -2.5 71% 76.4 0.0
02 03:55 Calm 16.09 Fair CLR 2.3 -2.3 72% 76.4 0.0
02 03:35 Calm 16.09 Fair CLR 2.5 -2.7 69% 76.4 0.0
02 03:15 W 7 16.09 Fair CLR 3.1 -2.9 65% 1 76.4 0.0
02 02:55 W 6 16.09 Fair CLR 3.5 -2.8 64% 76.4 0.0
02 02:35 Calm 16.09 Fair CLR 3.5 -2.5 65% 76.4 0.0
02 02:15 W 6 16.09 Fair CLR 3.8 -2.9 62% 76.43 0.0
02 01:55 W 6 16.09 Fair CLR 3.5 -2.6 65% 76.43 0.0
02 01:35 W 6 16.09 Fair CLR 3.6 -3.2 61% 76.43 0.0
02 01:15 Calm 16.09 Fair CLR 4.1 -3.4 59% 76.45 0.0
02 00:55 Calm 16.09 Fair CLR 4.3 -2.8 11.3 3.5 60% 76.45 0.0
02 00:35 Calm 16.09 Fair CLR 4.7 -3.3 57% 76.43 0.0
02 00:15 W 6 16.09 Fair CLR 4 -3.2 60% 76.45 0.0
01 23:55 W 6 16.09 Partly Cloudy SCT085 3.7 -2.7 63% 76.45 0.0
01 23:35 Calm 16.09 Partly Cloudy SCT085 4.1 -3.3 59% 76.45 0.0
01 23:15 Calm 16.09 Fair CLR 4.7 -2.8 59% 76.45 0.0
01 22:55 Calm 16.09 Partly Cloudy SCT085 5.3 -3.7 53% 76.45 0.0
01 22:35 Calm 16.09 Mostly Cloudy BKN085 5.5 -3.4 53% 76.45 0.0
01 22:15 Calm 16.09 Fair CLR 5.5 -3.7 52% 76.45 0.0
01 21:55 Calm 16.09 Fair CLR 5.8 -1.2 61% 76.45 0.0
01 21:35 Calm 16.09 Partly Cloudy SCT085 7.1 -4.2 45% 76.45 0.0
01 21:15 Calm 16.09 Partly Cloudy SCT085 5.8 -2.7 55% 76.43 0.0
01 20:55 Calm 16.09 Fair CLR 6.7 -3.4 49% 76.43 0.0
01 20:35 Calm 16.09 Fair CLR 7.5 -4.7 42% 76.4 0.0
01 20:15 Calm 16.09 Fair CLR 9 -5.5 36% 76.4 0.0
01 19:55 Calm 16.09 Fair CLR 10.1 -6.9 30% 76.4 0.0
01 19:35 NW 6 16.09 Partly Cloudy SCT090 10.6 -6.7 29% 76.4 0.0
01 19:15 W 7 16.09 Partly Cloudy SCT080 11 -6.5 29% 76.4 0.0
01 18:55 W 7 16.09 Mostly Cloudy BKN080 11.6 -7.5 12.5 9.5 26% 76.4 0.0
01 18:35 NW 7 16.09 Overcast OVC080 12.4 -7.1 25% 76.4 0.0
01 18:15 Calm 16.09 Overcast OVC080 11.4 -7.7 26% 76.4 0.0
01 17:55 E 9 16.09 Overcast OVC080 11.8 -7.4 26% 76.4 0.0
01 17:35 Calm 16.09 Mostly Cloudy BKN080 10.8 -7.6 27% 76.4 0.0
01 17:15 NW 9 16.09 Fair CLR 11.9 -6.7 27% 76.4 0.0
01 16:55 NW 7 16.09 Fair CLR 12.3 -7.5 25% 76.4 0.0
01 16:35 NW 15 16.09 Partly Cloudy SCT065 11.7 -6.8 27% 76.43 0.0
01 16:15 NW 9 16.09 Mostly Cloudy BKN065 11.7 -7.2 26% 76.43 0.0
01 15:55 NW 17 G 26 16.09 Mostly Cloudy BKN065 11.8 -6.7 27% 76.43 0.0
01 15:35 NW 11 16.09 Partly Cloudy SCT065 SCT080 12 -5.9 28% 76.45 0.0
01 15:15 NW 9 16.09 Partly Cloudy SCT065 11.1 -6.5 29% 76.45 0.0
01 14:55 Calm 16.09 Mostly Cloudy BKN065 11.5 -6.7 28% 76.45 0.0
01 14:35 N 7 16.09 Mostly Cloudy BKN065 11.3 -6.9 28% 76.45 0.0
01 14:15 NW 9 G 30 16.09 Mostly Cloudy BKN065 10.5 -6.7 29% 76.48 0.0
01 13:55 NW 7 16.09 Mostly Cloudy BKN065 11 -5.9 30% 76.45 0.0
01 13:35 NE 9 16.09 Mostly Cloudy BKN065 10.2 -6.3 31% 76.45 0.0
01 13:15 N 13 16.09 Mostly Cloudy BKN065 10.5 -5.5 32% 76.48 0.0
01 12:55 N 13 16.09 Mostly Cloudy BKN065 9.5 -5.7 10.4 3.1 34% 8 76.48 0.0
01 12:35 NW 13 16.09 Mostly Cloudy BKN055 9.3 -6.6 32% 8 76.5 0.0
01 12:15 N 13 16.09 Mostly Cloudy BKN055 10.4 -5.6 32% 76.5 0.0
01 11:55 N 22 G 30 16.09 Mostly Cloudy BKN055 9.8 -6.5 31% 7 76.5 0.0
01 11:35 NW 11 16.09 Partly Cloudy SCT055 8.9 -5.9 35% 7 76.5 0.0
01 11:15 NW 15 16.09 Mostly Cloudy BKN055 8.6 -6.1 35% 6 76.5 0.0
01 10:55 NE 13 16.09 Overcast OVC065 9 -5.3 36% 7 76.5 0.0
01 10:35 N 11 16.09 Mostly Cloudy SCT050 BKN065 8 -5.5 38% 6 76.5 0.0
01 10:15 NW 13 16.09 Overcast OVC065 8 -5.6 38% 6 76.5 0.0
Date Time (cdt) Wind (kph) Vis. (km) Weather Sky Cond. Air Dwpt Max. Min. Relative Humidity Wind Chill (°C) Heat Index (°C) altimeter (cm) sea level (mb) 1 hr 3 hr 6 hr
6 hour
Temperature (ºC) Pressure Precipitation (cm)